Time;durP1;ratioP1;P1;durP2;ratioP2;P2;SDS_P1;SDS_P2;PMS_P1;PMS_P2;Temp;Humidity;BMP_temperature;BMP_pressure;BME280_temperature;BME280_humidity;BME280_pressure;Samples;Min_cycle;Max_cycle;Signal;HPM_P1;HPM_P2
2022/09/06 00:02:24;;;;;;;2.42;2.10;;;22.20;1.00;;;;;;5083560;28;20240;-68
2022/09/06 00:04:51;;;;;;;4.50;2.05;;;22.10;1.00;;;;;;5086231;28;20723;-67
2022/09/06 00:07:18;;;;;;;6.60;2.42;;;22.10;1.00;;;;;;5083686;28;20240;-67
2022/09/06 00:09:45;;;;;;;4.32;2.22;;;22.10;1.00;;;;;;5073158;28;20201;-67
2022/09/06 00:12:12;;;;;;;3.28;2.20;;;22.10;1.20;;;;;;5070601;28;20186;-67
2022/09/06 00:14:39;;;;;;;5.78;2.20;;;22.10;3.70;;;;;;5049923;28;20202;-63
2022/09/06 00:17:06;;;;;;;3.88;2.55;;;22.00;9.50;;;;;;5079213;28;20217;-63
2022/09/06 00:19:33;;;;;;;4.75;2.03;;;22.00;13.10;;;;;;5048743;28;20240;-63
2022/09/06 00:22:00;;;;;;;4.60;2.67;;;22.00;13.90;;;;;;5064070;28;20276;-64
2022/09/06 00:24:27;;;;;;;2.40;2.20;;;22.00;18.80;;;;;;5061106;28;20223;-64
2022/09/06 00:26:54;;;;;;;3.40;2.30;;;21.90;21.80;;;;;;5061986;28;20803;-63
2022/09/06 00:29:21;;;;;;;6.60;2.20;;;21.90;24.70;;;;;;5081526;28;20558;-63
2022/09/06 00:31:48;;;;;;;4.72;2.22;;;21.90;29.80;;;;;;5082929;28;20194;-64
2022/09/06 00:34:15;;;;;;;2.40;2.20;;;21.90;31.80;;;;;;5084384;28;20232;-64
2022/09/06 00:36:42;;;;;;;2.42;2.22;;;21.90;33.70;;;;;;5069624;28;20202;-64
2022/09/06 00:39:09;;;;;;;2.50;2.30;;;21.90;37.90;;;;;;5084625;28;20198;-64
2022/09/06 00:41:36;;;;;;;3.53;2.15;;;21.90;41.20;;;;;;5065746;28;20241;-64
2022/09/06 00:44:03;;;;;;;5.13;2.50;;;21.90;41.90;;;;;;5084750;28;20194;-65
2022/09/06 00:46:31;;;;;;;3.92;2.42;;;21.90;46.00;;;;;;5067271;28;20187;-64
2022/09/06 00:49:04;;;;;;;7.05;2.30;;;21.90;48.80;;;;;;5052308;28;20234;-66
2022/09/06 00:51:33;;;;;;;4.13;2.22;;;21.90;49.40;;;;;;5048703;28;20206;-65
2022/09/06 00:54:04;;;;;;;5.40;2.40;;;21.90;49.90;;;;;;5060945;28;20195;-65
2022/09/06 00:56:34;;;;;;;4.82;2.55;;;22.00;45.40;;;;;;5060300;28;20206;-64
2022/09/06 00:59:01;;;;;;;3.40;2.13;;;22.00;45.80;;;;;;5044306;28;20199;-64
2022/09/06 01:01:28;;;;;;;3.83;2.53;;;22.00;45.50;;;;;;5064781;28;20230;-66
2022/09/06 01:03:55;;;;;;;4.82;2.40;;;22.00;44.40;;;;;;5063383;28;20191;-68
2022/09/06 01:06:28;;;;;;;4.13;2.45;;;22.10;40.70;;;;;;5061772;28;20202;-69
2022/09/06 01:09:11;;;;;;;5.45;2.50;;;22.00;45.20;;;;;;5045753;28;20278;-69
2022/09/06 01:11:54;;;;;;;2.95;2.20;;;21.90;53.30;;;;;;5063862;28;20234;-68
2022/09/06 01:14:33;;;;;;;3.35;2.30;;;21.90;59.80;;;;;;5040472;28;20203;-68
2022/09/06 01:17:09;;;;;;;5.05;2.45;;;21.80;70.30;;;;;;5034867;28;20241;-68
2022/09/06 01:20:28;;;;;;;4.32;2.20;;;21.80;73.30;;;;;;5063044;28;20229;-68
2022/09/06 01:23:07;;;;;;;2.55;2.33;;;21.80;77.20;;;;;;5049709;28;20566;-68
2022/09/06 01:25:39;;;;;;;2.72;2.47;;;21.70;86.30;;;;;;5059256;28;20316;-67
2022/09/06 01:28:30;;;;;;;3.55;2.30;;;21.70;89.30;;;;;;5060517;28;20191;-66
2022/09/06 01:31:23;;;;;;;2.97;2.42;;;21.70;94.90;;;;;;5069289;28;20197;-65
2022/09/06 01:34:17;;;;;;;2.90;2.40;;;21.70;98.20;;;;;;5067532;28;20218;-66
2022/09/06 01:36:55;;;;;;;2.63;2.42;;;21.60;99.40;;;;;;5046988;28;20199;-66
2022/09/06 01:39:38;;;;;;;2.80;2.30;;;21.60;99.90;;;;;;5049617;28;20195;-66
2022/09/06 01:42:18;;;;;;;2.97;2.60;;;21.50;99.90;;;;;;5063871;28;20223;-64
2022/09/06 01:44:53;;;;;;;3.92;2.40;;;21.50;99.90;;;;;;5048797;28;20187;-63
2022/09/06 01:47:42;;;;;;;4.32;2.40;;;21.50;99.90;;;;;;5056116;28;20198;-64
2022/09/06 01:50:25;;;;;;;2.35;2.13;;;21.50;99.90;;;;;;5088713;28;20226;-64
2022/09/06 01:53:10;;;;;;;6.68;2.47;;;21.50;99.90;;;;;;5068700;28;20203;-64
2022/09/06 01:55:53;;;;;;;4.32;2.50;;;21.50;99.90;;;;;;5068580;28;20202;-64
2022/09/06 01:58:40;;;;;;;4.25;2.30;;;21.50;99.90;;;;;;5080305;28;20599;-64
2022/09/06 02:01:34;;;;;;;2.85;2.53;;;21.50;99.90;;;;;;5084578;28;20216;-66
2022/09/06 02:04:23;;;;;;;4.65;2.78;;;21.50;99.90;;;;;;5077849;28;20203;-66
2022/09/06 02:06:56;;;;;;;2.65;2.45;;;21.50;99.90;;;;;;5073727;28;20190;-65
2022/09/06 02:09:27;;;;;;;4.50;2.65;;;21.50;99.90;;;;;;5082053;28;20245;-64
2022/09/06 02:12:00;;;;;;;5.68;2.80;;;21.50;99.90;;;;;;5043481;28;20205;-64
2022/09/06 02:14:42;;;;;;;7.57;5.55;;;21.50;99.90;;;;;;5079299;28;20651;-65
2022/09/06 02:17:14;;;;;;;3.03;2.78;;;21.60;99.90;;;;;;5079032;28;20280;-65
2022/09/06 02:19:50;;;;;;;2.78;2.58;;;21.50;99.90;;;;;;5078203;28;20194;-65
2022/09/06 02:22:21;;;;;;;9.70;3.17;;;21.50;99.90;;;;;;5057496;28;20214;-65
2022/09/06 02:24:52;;;;;;;13.23;9.20;;;21.40;99.90;;;;;;5065197;28;20244;-66
2022/09/06 02:27:19;;;;;;;4.10;2.78;;;21.40;99.90;;;;;;5076544;28;20670;-66
2022/09/06 02:29:46;;;;;;;3.80;2.38;;;21.60;92.90;;;;;;5078632;28;20221;-65
2022/09/06 02:32:18;;;;;;;5.32;2.40;;;21.70;78.40;;;;;;5062970;28;20190;-65
2022/09/06 02:34:46;;;;;;;2.78;2.53;;;21.60;76.30;;;;;;5048689;28;20451;-65
2022/09/06 02:37:15;;;;;;;3.65;2.50;;;21.50;88.20;;;;;;5080257;28;20346;-65
2022/09/06 02:39:42;;;;;;;2.83;2.53;;;21.60;68.70;;;;;;5067579;28;20198;-65
2022/09/06 02:42:11;;;;;;;2.33;2.10;;;21.70;50.60;;;;;;5083919;28;20826;-66
2022/09/06 02:44:39;;;;;;;2.65;2.10;;;21.70;40.00;;;;;;5059965;28;20277;-65
2022/09/06 02:47:06;;;;;;;4.15;2.38;;;21.60;40.20;;;;;;5076413;28;20252;-65
2022/09/06 02:49:33;;;;;;;6.38;2.75;;;21.70;29.90;;;;;;5079272;28;20226;-66
2022/09/06 02:52:00;;;;;;;3.72;2.38;;;21.70;28.70;;;;;;5081584;28;20202;-65
2022/09/06 02:54:27;;;;;;;7.00;2.38;;;21.70;27.50;;;;;;5076481;28;20207;-65
2022/09/06 02:56:54;;;;;;;5.82;2.15;;;21.60;28.30;;;;;;5059298;28;20201;-64
2022/09/06 02:59:21;;;;;;;8.55;2.25;;;21.50;33.40;;;;;;5075676;28;20225;-65
2022/09/06 03:01:48;;;;;;;5.13;2.22;;;21.40;60.60;;;;;;5077494;28;20634;-65
2022/09/06 03:04:15;;;;;;;6.32;2.20;;;21.30;55.70;;;;;;5078103;28;20705;-66
2022/09/06 03:06:42;;;;;;;4.53;2.05;;;21.30;56.10;;;;;;5060116;28;20281;-64
2022/09/06 03:09:09;;;;;;;4.90;2.33;;;21.30;46.50;;;;;;5078007;28;20687;-64
2022/09/06 03:11:36;;;;;;;6.38;2.50;;;21.30;49.60;;;;;;5080344;28;20229;-64
2022/09/06 03:14:03;;;;;;;5.10;2.25;;;21.40;47.10;;;;;;5055675;28;20248;-64
2022/09/06 03:16:30;;;;;;;3.92;2.20;;;21.40;50.30;;;;;;5075842;28;20253;-64
2022/09/06 03:18:57;;;;;;;2.38;2.05;;;21.50;26.90;;;;;;5058313;28;20202;-64
2022/09/06 03:21:24;;;;;;;6.30;2.67;;;21.50;25.30;;;;;;5069866;28;20305;-64
2022/09/06 03:23:51;;;;;;;4.97;2.30;;;21.50;14.40;;;;;;5075913;28;20203;-64
2022/09/06 03:26:18;;;;;;;7.05;2.45;;;21.30;15.60;;;;;;5073671;28;20191;-64
2022/09/06 03:28:45;;;;;;;2.78;2.03;;;21.30;17.50;;;;;;5077040;28;20194;-65
2022/09/06 03:31:12;;;;;;;8.02;2.63;;;21.30;19.70;;;;;;5074363;28;21073;-63
2022/09/06 03:33:39;;;;;;;5.80;2.13;;;21.20;8.70;;;;;;5074776;28;20607;-64
2022/09/06 03:36:07;;;;;;;3.00;2.15;;;21.20;11.10;;;;;;5061747;28;20261;-64
2022/09/06 03:38:33;;;;;;;4.85;2.15;;;21.20;3.20;;;;;;5077136;28;20252;-64
2022/09/06 03:41:00;;;;;;;6.68;2.40;;;21.30;1.00;;;;;;5078143;28;20218;-63
2022/09/06 03:43:28;;;;;;;7.63;2.40;;;21.40;1.00;;;;;;5078481;28;20222;-64
2022/09/06 03:45:56;;;;;;;7.32;2.03;;;21.50;1.00;;;;;;5046103;28;20202;-64
2022/09/06 03:48:25;;;;;;;5.43;2.50;;;21.60;1.00;;;;;;5054058;28;20234;-64
2022/09/06 03:50:54;;;;;;;6.55;2.75;;;21.70;1.00;;;;;;5052996;28;20183;-64
2022/09/06 03:53:23;;;;;;;6.22;2.58;;;21.70;1.00;;;;;;5057713;28;20199;-64
2022/09/06 03:55:52;;;;;;;4.28;2.35;;;21.80;1.00;;;;;;5057764;28;20203;-64
2022/09/06 03:58:21;;;;;;;4.50;2.10;;;21.80;1.00;;;;;;5038911;28;20276;-64
2022/09/06 04:00:48;;;;;;;4.15;2.38;;;21.90;1.00;;;;;;5036418;28;20199;-64
2022/09/06 04:03:18;;;;;;;6.60;2.10;;;21.80;1.00;;;;;;5040724;28;20230;-64
2022/09/06 04:05:45;;;;;;;2.85;2.50;;;21.80;1.00;;;;;;5058706;28;20187;-64
2022/09/06 04:08:12;;;;;;;3.60;2.55;;;21.80;1.00;;;;;;5021249;28;20226;-64
2022/09/06 04:10:39;;;;;;;3.15;2.20;;;21.80;1.00;;;;;;5057242;28;20282;-64
2022/09/06 04:13:06;;;;;;;4.95;2.13;;;21.80;1.00;;;;;;5043762;28;20260;-64
2022/09/06 04:15:33;;;;;;;3.03;2.10;;;21.80;1.00;;;;;;5060262;28;20227;-64
2022/09/06 04:18:00;;;;;;;5.97;2.38;;;21.80;1.00;;;;;;5043544;28;20187;-64
2022/09/06 04:20:34;;;;;;;5.57;2.58;;;21.80;1.00;;;;;;5040245;28;20205;-64
2022/09/06 04:23:01;;;;;;;2.72;2.22;;;21.70;1.00;;;;;;5044603;28;20693;-64
2022/09/06 04:25:28;;;;;;;3.88;2.08;;;21.80;1.00;;;;;;5058582;28;20685;-64
2022/09/06 04:27:55;;;;;;;4.47;2.20;;;21.80;1.00;;;;;;5061160;28;20249;-64
2022/09/06 04:30:22;;;;;;;4.30;2.70;;;21.90;1.00;;;;;;5058179;28;20194;-64
2022/09/06 04:32:49;;;;;;;5.32;2.35;;;21.90;1.00;;;;;;5058553;28;20245;-64
2022/09/06 04:35:16;;;;;;;6.28;2.13;;;21.80;1.00;;;;;;5045004;28;20226;-64
2022/09/06 04:37:43;;;;;;;4.72;2.30;;;21.80;1.00;;;;;;5045431;28;20209;-64
2022/09/06 04:40:10;;;;;;;5.40;2.72;;;21.80;1.00;;;;;;5055843;28;20203;-64
2022/09/06 04:42:37;;;;;;;4.45;2.28;;;21.70;1.00;;;;;;5040081;28;20700;-64
2022/09/06 04:45:04;;;;;;;4.15;2.70;;;21.80;1.00;;;;;;5041394;28;20195;-64
2022/09/06 04:47:31;;;;;;;4.47;2.40;;;21.80;1.00;;;;;;5046916;28;20624;-64
2022/09/06 04:49:58;;;;;;;9.23;2.78;;;21.70;1.00;;;;;;5062797;28;20198;-64
2022/09/06 04:52:25;;;;;;;3.70;2.50;;;21.60;1.00;;;;;;5083550;28;20243;-64
2022/09/06 04:54:56;;;;;;;3.25;2.45;;;21.50;1.00;;;;;;5085359;28;20265;-64
2022/09/06 04:57:23;;;;;;;5.10;2.30;;;21.50;1.00;;;;;;5080960;28;20722;-64
2022/09/06 04:59:50;;;;;;;3.92;2.55;;;21.60;1.00;;;;;;5066747;28;20230;-64
2022/09/06 05:02:16;;;;;;;4.65;2.58;;;21.70;1.00;;;;;;5048050;28;20207;-64
2022/09/06 05:04:43;;;;;;;9.40;2.97;;;21.70;1.00;;;;;;5079592;28;20234;-64
2022/09/06 05:07:10;;;;;;;3.65;2.40;;;21.70;1.00;;;;;;5081718;28;20565;-64
2022/09/06 05:09:37;;;;;;;5.28;2.20;;;21.70;1.00;;;;;;5062952;28;20202;-64
2022/09/06 05:12:05;;;;;;;3.58;2.45;;;21.70;1.00;;;;;;5077657;28;20654;-64
2022/09/06 05:14:32;;;;;;;7.82;2.65;;;21.70;1.00;;;;;;5061802;28;20244;-64
2022/09/06 05:16:58;;;;;;;4.93;2.78;;;21.70;1.00;;;;;;5064837;28;20214;-64
2022/09/06 05:19:25;;;;;;;5.75;2.80;;;21.60;1.00;;;;;;5078423;28;20198;-64
2022/09/06 05:21:52;;;;;;;6.25;3.00;;;21.60;1.00;;;;;;5066949;28;20210;-64
2022/09/06 05:24:19;;;;;;;5.85;2.72;;;21.60;1.00;;;;;;5082972;28;20241;-64
2022/09/06 05:26:46;;;;;;;3.53;2.65;;;21.60;1.00;;;;;;5075902;28;20680;-65
2022/09/06 05:29:13;;;;;;;5.43;2.88;;;21.60;1.00;;;;;;5059187;28;20195;-64
2022/09/06 05:31:40;;;;;;;4.78;2.65;;;21.60;1.00;;;;;;5081946;28;20252;-64
2022/09/06 05:34:07;;;;;;;7.60;2.80;;;21.60;1.00;;;;;;5079160;28;20292;-64
2022/09/06 05:36:34;;;;;;;9.35;2.47;;;21.40;1.00;;;;;;5065360;28;20281;-64
2022/09/06 05:39:01;;;;;;;3.38;2.55;;;21.30;1.00;;;;;;5063892;28;20202;-64
2022/09/06 05:41:28;;;;;;;7.88;2.80;;;21.00;1.00;;;;;;5079411;28;22807;-64
2022/09/06 05:43:55;;;;;;;6.22;2.60;;;21.00;3.70;;;;;;5073636;28;20268;-64
2022/09/06 05:46:22;;;;;;;6.65;3.05;;;21.00;11.00;;;;;;5060931;28;20205;-64
2022/09/06 05:48:59;;;;;;;10.27;3.00;;;21.00;28.80;;;;;;5076503;28;20230;-64
2022/09/06 05:51:26;;;;;;;6.03;2.85;;;21.10;23.30;;;;;;5061371;28;20783;-64
2022/09/06 05:53:53;;;;;;;5.85;2.95;;;21.20;19.30;;;;;;5057807;28;20202;-64
2022/09/06 05:56:21;;;;;;;4.88;2.42;;;21.50;19.10;;;;;;5077905;28;20199;-64
2022/09/06 05:58:48;;;;;;;4.22;2.80;;;21.50;42.00;;;;;;5059912;28;20202;-64
2022/09/06 06:01:19;;;;;;;10.35;3.00;;;21.60;94.70;;;;;;5077581;28;20190;-64
2022/09/06 06:03:55;;;;;;;3.92;2.95;;;21.60;99.90;;;;;;5080673;28;20795;-64
2022/09/06 06:06:25;;;;;;;6.18;3.03;;;21.30;99.90;;;;;;5063860;28;20226;-64
2022/09/06 06:08:52;;;;;;;6.07;2.92;;;21.10;99.90;;;;;;5064812;28;20582;-64
2022/09/06 06:11:19;;;;;;;4.07;2.95;;;20.80;99.90;;;;;;5063409;28;21049;-64
2022/09/06 06:13:46;;;;;;;4.63;2.95;;;20.80;99.90;;;;;;5076941;28;20235;-64
2022/09/06 06:16:16;;;;;;;7.07;3.42;;;21.20;99.90;;;;;;5076535;28;20705;-64
2022/09/06 06:18:44;;;;;;;10.00;3.40;;;21.40;99.90;;;;;;5061062;28;20277;-64
2022/09/06 06:21:20;;;;;;;6.75;2.95;;;21.50;99.90;;;;;;5053200;28;20193;-64
2022/09/06 06:23:56;;;;;;;9.35;3.70;;;21.50;99.90;;;;;;5073170;28;20214;-64
2022/09/06 06:26:25;;;;;;;5.10;3.03;;;21.40;99.90;;;;;;5080720;28;20198;-64
2022/09/06 06:28:52;;;;;;;9.40;3.90;;;21.20;99.90;;;;;;5076886;28;20270;-64
2022/09/06 06:31:21;;;;;;;9.32;3.40;;;21.20;1.00;;;;;;5064969;28;20194;-64
2022/09/06 06:33:49;;;;;;;5.70;3.40;;;20.90;1.00;;;;;;5068277;28;20240;-64
2022/09/06 06:36:15;;;;;;;7.65;3.40;;;20.80;1.00;;;;;;5087345;28;20596;-64
2022/09/06 06:38:44;;;;;;;5.93;3.20;;;20.60;1.00;;;;;;5044843;28;20206;-63
2022/09/06 06:41:13;;;;;;;7.32;3.50;;;20.60;1.00;;;;;;5084087;28;20222;-64
2022/09/06 06:43:41;;;;;;;6.82;3.38;;;20.90;1.00;;;;;;5068141;28;20213;-65
2022/09/06 06:46:10;;;;;;;5.55;3.50;;;21.10;99.90;;;;;;5079670;28;20203;-65
2022/09/06 06:48:42;;;;;;;5.10;3.30;;;21.10;1.00;;;;;;5059738;28;20312;-63
2022/09/06 06:51:11;;;;;;;5.63;3.00;;;21.20;1.00;;;;;;5077610;28;20191;-63
2022/09/06 06:53:38;;;;;;;6.68;3.28;;;21.20;1.00;;;;;;5078308;28;20201;-63
2022/09/06 06:56:19;;;;;;;6.47;3.92;;;21.30;99.90;;;;;;5079233;28;20213;-63
2022/09/06 06:58:47;;;;;;;7.60;3.55;;;21.90;99.90;;;;;;5059315;28;20209;-63
2022/09/06 07:01:15;;;;;;;7.40;3.22;;;22.20;99.90;;;;;;5078384;28;20199;-64
2022/09/06 07:03:43;;;;;;;9.95;3.53;;;22.30;99.90;;;;;;5080804;28;20212;-63
2022/09/06 07:06:10;;;;;;;6.90;3.10;;;22.20;99.90;;;;;;5079119;28;20272;-63
2022/09/06 07:08:39;;;;;;;8.35;3.53;;;22.60;99.90;;;;;;5064722;28;20209;-63
2022/09/06 07:11:08;;;;;;;5.80;3.60;;;22.50;99.90;;;;;;5078154;28;20190;-63
2022/09/06 07:13:36;;;;;;;7.05;2.88;;;22.80;99.90;;;;;;5041512;28;20202;-63
2022/09/06 07:16:22;;;;;;;3.65;2.70;;;23.10;99.90;;;;;;5074428;28;20230;-67
2022/09/06 07:18:53;;;;;;;4.18;2.70;;;27.50;1.00;;;;;;5077302;28;20561;-63
2022/09/06 07:21:25;;;;;;;3.72;2.30;;;29.90;1.00;;;;;;5082756;28;20271;-65
2022/09/06 07:24:08;;;;;;;7.40;2.97;;;31.30;1.00;;;;;;5082251;28;20219;-64
2022/09/06 07:26:37;;;;;;;5.32;2.70;;;32.40;1.00;;;;;;5077982;28;20274;-64
2022/09/06 07:29:06;;;;;;;5.38;2.63;;;32.50;1.00;;;;;;5072019;28;20201;-63
2022/09/06 07:31:36;;;;;;;6.43;2.40;;;32.00;1.00;;;;;;5060811;28;20221;-63
2022/09/06 07:34:24;;;;;;;6.22;2.90;;;31.50;1.00;;;;;;5048890;28;20194;-63
2022/09/06 07:36:55;;;;;;;4.80;2.50;;;30.20;1.00;;;;;;5062359;28;20618;-64
2022/09/06 07:39:22;;;;;;;12.40;3.15;;;31.80;1.00;;;;;;5056892;28;20256;-64
2022/09/06 07:41:49;;;;;;;7.80;2.80;;;30.20;1.00;;;;;;5077409;28;20233;-64
2022/09/06 07:44:16;;;;;;;5.30;2.80;;;30.40;1.00;;;;;;5075488;28;20326;-63
2022/09/06 07:46:43;;;;;;;9.32;2.78;;;32.20;1.00;;;;;;5053067;28;20186;-63
2022/09/06 07:49:10;;;;;;;5.82;2.45;;;32.40;1.00;;;;;;5056979;28;20701;-63
2022/09/06 07:51:37;;;;;;;6.22;2.30;;;32.00;1.00;;;;;;5063298;28;20193;-63
2022/09/06 07:54:05;;;;;;;9.57;2.40;;;31.80;1.00;;;;;;5070231;28;20206;-63
2022/09/06 07:56:52;;;;;;;3.58;1.90;;;35.20;1.00;;;;;;5068425;28;20205;-63
2022/09/06 07:59:19;;;;;;;4.13;2.20;;;35.70;1.00;;;;;;5056634;28;20254;-63
2022/09/06 08:01:47;;;;;;;6.32;2.60;;;33.80;1.00;;;;;;5061704;28;20193;-64
2022/09/06 08:04:14;;;;;;;4.53;2.28;;;32.70;1.00;;;;;;5065404;28;20301;-64
2022/09/06 08:06:47;;;;;;;5.30;2.60;;;34.90;1.00;;;;;;5081050;28;20186;-64
2022/09/06 08:09:34;;;;;;;6.45;2.22;;;35.60;1.00;;;;;;5076833;28;20888;-65
2022/09/06 08:12:05;;;;;;;5.90;2.30;;;36.60;1.00;;;;;;5080359;28;20194;-64
2022/09/06 08:14:33;;;;;;;6.43;2.40;;;35.40;1.00;;;;;;5077786;28;20939;-64
2022/09/06 08:17:01;;;;;;;3.70;2.35;;;36.50;1.00;;;;;;5060276;28;20769;-63
2022/09/06 08:19:28;;;;;;;9.95;2.15;;;35.10;1.00;;;;;;5057688;28;20268;-65
2022/09/06 08:21:55;;;;;;;5.20;2.13;;;35.20;1.00;;;;;;5064280;28;20197;-65
2022/09/06 08:24:22;;;;;;;4.75;1.95;;;35.80;1.00;;;;;;5073937;28;20217;-66
2022/09/06 08:26:49;;;;;;;2.97;1.90;;;35.50;1.00;;;;;;5062572;28;20244;-63
2022/09/06 08:29:17;;;;;;;6.43;2.25;;;36.60;1.00;;;;;;5081143;28;20289;-66
2022/09/06 08:31:45;;;;;;;2.95;1.70;;;37.20;1.00;;;;;;5084313;28;20256;-65
2022/09/06 08:34:13;;;;;;;5.78;2.20;;;39.40;1.00;;;;;;5065540;28;20264;-65
2022/09/06 08:36:41;;;;;;;3.17;1.98;;;38.10;1.00;;;;;;5079076;28;20198;-65
2022/09/06 08:39:09;;;;;;;3.25;1.95;;;35.30;1.00;;;;;;5064095;28;20205;-65
2022/09/06 08:41:50;;;;;;;2.60;1.70;;;34.80;1.00;;;;;;5075156;28;20191;-64
2022/09/06 08:44:33;;;;;;;3.28;2.00;;;34.70;1.00;;;;;;5060420;28;20217;-65
2022/09/06 08:47:20;;;;;;;3.95;2.10;;;38.30;1.00;;;;;;5075514;28;20193;-65
2022/09/06 08:49:58;;;;;;;3.15;1.90;;;38.30;1.00;;;;;;5074600;28;20665;-65
2022/09/06 08:52:45;;;;;;;2.50;1.60;;;38.20;1.00;;;;;;5057704;28;20278;-65
2022/09/06 08:55:35;;;;;;;3.55;1.70;;;37.60;1.00;;;;;;5079631;28;20198;-65
2022/09/06 08:58:23;;;;;;;2.88;1.58;;;37.00;1.00;;;;;;5077947;28;21242;-64
2022/09/06 09:01:22;;;;;;;3.85;1.90;;;36.80;1.00;;;;;;5083071;28;20199;-65
2022/09/06 09:03:51;;;;;;;9.27;2.10;;;37.90;1.00;;;;;;5074728;28;20227;-65
2022/09/06 09:06:18;;;;;;;3.65;1.85;;;37.70;1.00;;;;;;5058157;28;20702;-65
2022/09/06 09:09:02;;;;;;;4.25;1.70;;;34.90;1.00;;;;;;5046914;28;20256;-65
2022/09/06 09:11:32;;;;;;;3.70;2.10;;;37.60;1.00;;;;;;5071181;28;20232;-65
2022/09/06 09:14:03;;;;;;;3.10;1.88;;;37.80;1.00;;;;;;5077774;28;20217;-65
2022/09/06 09:16:30;;;;;;;2.00;1.80;;;40.20;1.00;;;;;;5065249;28;20276;-65
2022/09/06 09:19:03;;;;;;;2.95;1.95;;;41.30;1.00;;;;;;5079968;28;20198;-66
2022/09/06 09:21:33;;;;;;;5.25;1.98;;;40.70;1.00;;;;;;5082534;28;20190;-65
2022/09/06 09:24:06;;;;;;;3.35;1.73;;;41.90;1.00;;;;;;5067483;28;20305;-65
2022/09/06 09:26:48;;;;;;;4.60;1.80;;;41.90;1.00;;;;;;5048260;28;20190;-65
2022/09/06 09:29:16;;;;;;;3.05;1.48;;;38.60;1.00;;;;;;5072645;28;20228;-64
2022/09/06 09:31:48;;;;;;;3.55;1.75;;;40.60;1.00;;;;;;5081836;28;20243;-65
2022/09/06 09:34:45;;;;;;;3.03;1.63;;;40.40;1.00;;;;;;5075943;28;20691;-66
2022/09/06 09:37:24;;;;;;;6.10;1.65;;;43.50;1.00;;;;;;5074235;28;20373;-69
2022/09/06 09:40:23;;;;;;;2.45;1.40;;;43.20;1.00;;;;;;5068158;28;20202;-70
2022/09/06 09:42:51;;;;;;;7.28;2.00;;;39.10;1.00;;;;;;5079728;28;20186;-70
2022/09/06 09:45:29;;;;;;;1.45;1.35;;;40.40;1.00;;;;;;5078545;28;20531;-69
2022/09/06 09:48:14;;;;;;;1.63;1.38;;;39.60;1.00;;;;;;5078794;28;20205;-68
2022/09/06 09:50:41;;;;;;;3.55;1.27;;;43.10;1.00;;;;;;5060181;28;20856;-67
2022/09/06 09:53:10;;;;;;;2.55;1.95;;;44.80;1.00;;;;;;5065733;28;20320;-67
2022/09/06 09:55:38;;;;;;;5.53;1.70;;;47.10;1.00;;;;;;5062421;28;20244;-68
2022/09/06 09:58:16;;;;;;;2.35;1.33;;;48.20;1.00;;;;;;5081504;28;20301;-67
2022/09/06 10:00:43;;;;;;;1.85;1.20;;;45.30;1.00;;;;;;5072670;28;20217;-67
2022/09/06 10:03:21;;;;;;;3.13;1.50;;;44.50;1.00;;;;;;5055056;28;20222;-67
2022/09/06 10:06:01;;;;;;;1.80;1.27;;;45.90;1.00;;;;;;5079136;28;20201;-67
2022/09/06 10:08:32;;;;;;;2.47;1.40;;;46.30;1.00;;;;;;5061902;28;20193;-67
2022/09/06 10:11:01;;;;;;;4.68;1.42;;;41.00;1.00;;;;;;5063561;28;20281;-67
2022/09/06 10:13:30;;;;;;;4.35;1.30;;;40.90;1.00;;;;;;5061650;28;20197;-68
2022/09/06 10:15:58;;;;;;;4.53;1.70;;;43.60;1.00;;;;;;5079256;28;20824;-69
2022/09/06 10:18:33;;;;;;;2.30;1.20;;;42.00;1.00;;;;;;5078853;28;20204;-67
2022/09/06 10:21:22;;;;;;;1.90;1.20;;;42.60;1.00;;;;;;5077136;28;20383;-68
2022/09/06 10:24:07;;;;;;;2.22;1.20;;;42.90;1.00;;;;;;5072009;28;20774;-67
2022/09/06 10:26:57;;;;;;;2.58;1.35;;;43.60;1.00;;;;;;5070496;28;20743;-68
2022/09/06 10:29:30;;;;;;;1.92;1.30;;;40.30;1.00;;;;;;5074201;28;20728;-68
2022/09/06 10:33:08;;;;;;;3.47;1.17;;;41.30;1.00;;;;;;5064357;28;20206;-68
2022/09/06 10:35:39;;;;;;;2.50;1.15;;;42.00;1.00;;;;;;4997709;28;20628;-68
2022/09/06 10:38:18;;;;;;;3.72;1.20;;;38.10;1.00;;;;;;5032515;28;20364;-68
2022/09/06 10:41:22;;;;;;;3.60;1.10;;;39.10;1.00;;;;;;5059544;28;20284;-67
2022/09/06 10:43:52;;;;;;;1.83;1.40;;;41.80;1.00;;;;;;5064440;28;20254;-68
2022/09/06 10:46:25;;;;;;;3.33;1.30;;;42.20;1.00;;;;;;5079675;28;20193;-68
2022/09/06 10:48:52;;;;;;;3.30;1.17;;;43.30;1.00;;;;;;5079755;28;20225;-68
2022/09/06 10:51:40;;;;;;;5.18;1.20;;;45.00;1.00;;;;;;5064792;28;20284;-68
2022/09/06 10:54:13;;;;;;;4.72;1.35;;;44.80;1.00;;;;;;5063596;28;20194;-68
2022/09/06 10:56:49;;;;;;;3.95;1.08;;;44.90;1.00;;;;;;5063593;28;20673;-68
2022/09/06 10:59:47;;;;;;;3.92;1.38;;;43.20;1.00;;;;;;5073325;28;20225;-68
2022/09/06 11:02:17;;;;;;;1.83;1.23;;;42.30;1.00;;;;;;5058252;28;20275;-68
2022/09/06 11:04:47;;;;;;;2.60;1.20;;;41.90;1.00;;;;;;5076208;28;20215;-68
2022/09/06 11:07:44;;;;;;;2.65;1.60;;;40.10;1.00;;;;;;5075880;28;20648;-68
2022/09/06 11:10:36;;;;;;;3.80;1.38;;;41.40;1.00;;;;;;5043948;28;20295;-67
2022/09/06 11:13:17;;;;;;;4.82;1.55;;;39.00;1.00;;;;;;5060451;28;20597;-69
2022/09/06 11:16:05;;;;;;;4.38;1.15;;;38.70;1.00;;;;;;5041966;28;20300;-69
2022/09/06 11:18:35;;;;;;;4.20;1.30;;;37.20;1.00;;;;;;5073065;28;20243;-69
2022/09/06 11:21:28;;;;;;;5.55;1.45;;;37.10;1.00;;;;;;5042127;28;20229;-68
2022/09/06 11:24:29;;;;;;;1.75;1.20;;;38.10;1.00;;;;;;5047331;28;20574;-67
2022/09/06 11:27:32;;;;;;;1.80;1.40;;;38.20;1.00;;;;;;5041995;28;20202;-69
2022/09/06 11:30:01;;;;;;;2.30;1.25;;;39.80;1.00;;;;;;5037038;28;20217;-69
2022/09/06 11:32:51;;;;;;;2.22;1.33;;;38.60;1.00;;;;;;5059938;28;20186;-68
2022/09/06 11:35:28;;;;;;;1.33;1.15;;;36.10;1.00;;;;;;5070951;28;20258;-69
2022/09/06 11:38:13;;;;;;;3.08;1.10;;;38.00;1.00;;;;;;5072024;28;20255;-69
2022/09/06 11:40:51;;;;;;;5.55;1.50;;;38.80;1.00;;;;;;5036620;28;20194;-69
2022/09/06 11:43:40;;;;;;;1.95;1.40;;;37.70;1.00;;;;;;5059088;28;20561;-68
2022/09/06 11:46:07;;;;;;;1.42;1.20;;;38.70;1.00;;;;;;5059763;28;20549;-69
2022/09/06 11:49:03;;;;;;;11.05;1.60;;;37.30;1.00;;;;;;5070692;28;20235;-68
2022/09/06 11:51:33;;;;;;;4.30;1.52;;;35.30;1.00;;;;;;5055067;28;20198;-63
2022/09/06 11:54:04;;;;;;;3.72;1.30;;;36.70;1.00;;;;;;5063388;28;20230;-64
2022/09/06 11:56:39;;;;;;;2.63;1.33;;;38.10;1.00;;;;;;5061477;28;20313;-62
2022/09/06 11:59:20;;;;;;;4.10;1.30;;;39.80;1.00;;;;;;5058605;28;20233;-61
2022/09/06 12:02:06;;;;;;;3.00;1.00;;;38.30;1.00;;;;;;5061535;28;20271;-60
2022/09/06 12:05:14;;;;;;;4.90;1.27;;;38.90;1.00;;;;;;5054900;28;20302;-62
2022/09/06 12:08:32;;;;;;;4.88;1.40;;;38.70;1.00;;;;;;4975746;28;20197;-61
2022/09/06 12:11:21;;;;;;;3.20;1.27;;;39.80;1.00;;;;;;4936258;28;20272;-64
2022/09/06 12:13:55;;;;;;;3.15;1.60;;;37.80;1.00;;;;;;5075274;28;20210;-61
2022/09/06 12:16:22;;;;;;;2.65;1.35;;;38.60;1.00;;;;;;5053003;28;20214;-62
2022/09/06 12:18:49;;;;;;;2.67;1.33;;;39.50;1.00;;;;;;5056456;28;20201;-61
2022/09/06 12:21:41;;;;;;;5.95;1.75;;;39.90;1.00;;;;;;5061381;28;20610;-61
2022/09/06 12:24:34;;;;;;;5.43;1.75;;;38.40;1.00;;;;;;5062562;28;20214;-63
2022/09/06 12:27:28;;;;;;;2.75;1.58;;;35.50;1.00;;;;;;5030515;28;20667;-61
2022/09/06 12:29:58;;;;;;;7.25;1.60;;;36.10;1.00;;;;;;5035489;28;20194;-61
2022/09/06 12:32:28;;;;;;;2.28;1.27;;;36.00;1.00;;;;;;5045976;28;20277;-60
2022/09/06 12:35:04;;;;;;;6.47;1.80;;;35.90;1.00;;;;;;5064358;28;20198;-61
2022/09/06 12:38:00;;;;;;;2.47;1.42;;;35.50;1.00;;;;;;5042101;28;20202;-62
2022/09/06 12:40:39;;;;;;;3.58;1.35;;;35.50;1.00;;;;;;5067764;28;20207;-62
2022/09/06 12:43:10;;;;;;;4.85;1.45;;;35.40;1.00;;;;;;5067583;28;20245;-62
2022/09/06 12:45:49;;;;;;;2.75;1.25;;;35.80;1.00;;;;;;5049620;28;20298;-59
2022/09/06 12:48:31;;;;;;;3.22;1.20;;;35.70;1.00;;;;;;5070786;28;20226;-62
2022/09/06 12:51:06;;;;;;;2.83;1.02;;;35.70;1.00;;;;;;5083522;28;20281;-62
2022/09/06 12:53:34;;;;;;;5.53;1.25;;;36.20;1.00;;;;;;5078402;28;20266;-60
2022/09/06 12:56:03;;;;;;;2.38;1.70;;;35.60;1.00;;;;;;5058318;28;20256;-61
2022/09/06 12:58:30;;;;;;;5.28;1.25;;;34.90;1.00;;;;;;5077402;28;20194;-61
2022/09/06 13:01:11;;;;;;;5.68;1.40;;;34.40;1.00;;;;;;5080799;28;20677;-61
2022/09/06 13:04:01;;;;;;;4.75;1.88;;;35.00;1.00;;;;;;5054957;28;20194;-61
2022/09/06 13:06:32;;;;;;;4.50;2.10;;;34.50;1.00;;;;;;5051680;28;20202;-59
2022/09/06 13:09:00;;;;;;;2.72;1.20;;;34.60;1.00;;;;;;5078813;28;20270;-61
2022/09/06 13:11:35;;;;;;;2.67;1.48;;;33.00;1.00;;;;;;5046113;28;20217;-60
2022/09/06 13:14:28;;;;;;;4.43;1.42;;;33.90;1.00;;;;;;5084323;28;20660;-60
2022/09/06 13:16:56;;;;;;;1.50;1.30;;;34.30;1.00;;;;;;5079503;28;20240;-60
2022/09/06 13:19:38;;;;;;;4.22;1.60;;;34.50;1.00;;;;;;5082586;28;20220;-61
2022/09/06 13:22:07;;;;;;;2.53;1.40;;;34.60;1.00;;;;;;5080302;28;20191;-60
2022/09/06 13:24:34;;;;;;;3.95;1.70;;;34.40;1.00;;;;;;5082883;28;20325;-62
2022/09/06 13:27:25;;;;;;;11.02;1.65;;;33.90;1.00;;;;;;5081106;28;20232;-62